Flight Track Log - Related Links

Times and Time Zones

All times are in EDT time to prevent confusion due to time zone crossing. See the CSN3802 flight status page for this flight to view local times or setup timezone preferences in your user account.

Time Position Orientation Groundspeed Altitude Reporting Facility
EDT Latitude Longitude Course Direction KTS MPH feet Rate Location/Type
Tue 06:02:00 PM 29.5688 119.6856 225° Southwest  Level Estimated
Tue 06:03:00 PM 29.4953 119.6033 224° Southwest  Level Estimated
Tue 06:04:00 PM 29.4217 119.5211 224° Southwest  Level Estimated
Tue 06:05:00 PM 29.3481 119.4391 224° Southwest  Level Estimated
Tue 06:06:00 PM 29.2744 119.3571 224° Southwest  Level Estimated
Tue 06:07:00 PM 29.2007 119.2753 224° Southwest  Level Estimated
Tue 06:08:00 PM 29.1269 119.1936 224° Southwest  Level Estimated
Tue 06:09:00 PM 29.0531 119.1121 224° Southwest  Level Estimated
Tue 06:10:00 PM 28.9792 119.0306 224° Southwest  Level Estimated
Tue 06:11:00 PM 28.9053 118.9492 224° Southwest  Level Estimated
Tue 06:12:00 PM 28.8313 118.8680 224° Southwest  Level Estimated
Tue 06:13:00 PM 28.7572 118.7869 224° Southwest  Level Estimated
Tue 06:14:00 PM 28.6832 118.7059 224° Southwest  Level Estimated
Tue 06:15:00 PM 28.6090 118.6250 224° Southwest  Level Estimated
Tue 06:16:00 PM 28.5349 118.5442 224° Southwest  Level Estimated
Tue 06:17:00 PM 28.4606 118.4636 224° Southwest  Level Estimated
Tue 06:18:00 PM 28.3864 118.3830 224° Southwest  Level Estimated
Tue 06:19:00 PM 28.3121 118.3026 224° Southwest  Level Estimated
Tue 06:20:00 PM 28.2377 118.2223 224° Southwest  Level Estimated
Tue 06:21:00 PM 28.1633 118.1421 224° Southwest  Level Estimated
Tue 06:22:00 PM 28.0888 118.0620 224° Southwest  Level Estimated
Tue 06:23:00 PM 28.0143 117.9820 223° Southwest  Level Estimated
Tue 06:24:00 PM 27.9398 117.9021 223° Southwest  Level Estimated
Tue 06:25:00 PM 27.8652 117.8223 223° Southwest  Level Estimated
Tue 06:26:00 PM 27.7905 117.7427 223° Southwest  Level Estimated
Tue 06:27:00 PM 27.7159 117.6631 223° Southwest  Level Estimated
Tue 06:28:00 PM 27.6411 117.5837 223° Southwest  Level Estimated
Tue 06:29:00 PM 27.5664 117.5044 223° Southwest  Level Estimated
Tue 06:30:00 PM 27.4915 117.4251 223° Southwest  Level Estimated
Tue 06:31:00 PM 27.4167 117.3460 223° Southwest  Level Estimated
Tue 06:32:00 PM 27.3417 117.2670 223° Southwest  Level Estimated
Tue 06:33:00 PM 27.2668 117.1881 223° Southwest  Level Estimated
Tue 06:34:00 PM 27.1918 117.1093 223° Southwest  Level Estimated
Tue 06:35:00 PM 27.1168 117.0306 223° Southwest  Level Estimated
Tue 06:36:00 PM 27.0417 116.9520 223° Southwest  Level Estimated
Tue 06:37:00 PM 26.9665 116.8736 223° Southwest  Level Estimated
Tue 06:38:00 PM 26.8913 116.7952 223° Southwest  Level Estimated
Tue 06:39:00 PM 26.8200 116.7210 223° Southwest  Level Estimated
Tue 06:40:00 PM 26.7487 116.6469 223° Southwest  Level Estimated
Tue 06:41:00 PM 26.6773 116.5729 223° Southwest  Level Estimated
Tue 06:42:00 PM 26.6059 116.4990 223° Southwest  Level Estimated
Tue 06:43:00 PM 26.5345 116.4252 223° Southwest  Level Estimated
Tue 06:44:00 PM 26.4630 116.3514 223° Southwest  Level Estimated
Tue 06:45:00 PM 26.3915 116.2778 223° Southwest  Level Estimated
Tue 06:46:00 PM 26.3199 116.2042 223° Southwest  Level Estimated
Tue 06:47:00 PM 26.2483 116.1308 223° Southwest  Level Estimated
Tue 06:48:00 PM 26.1766 116.0574 223° Southwest  Level Estimated
Tue 06:49:00 PM 26.1050 115.9841 223° Southwest  Level Estimated
Tue 06:50:00 PM 26.0333 115.9110 223° Southwest  Level Estimated
Tue 06:51:00 PM 25.9615 115.8379 222° Southwest  Level Estimated
Tue 06:52:00 PM 25.8897 115.7648 222° Southwest  Level Estimated
Tue 06:53:00 PM 25.8179 115.6919 222° Southwest  Level Estimated
Tue 06:54:00 PM 25.7460 115.6191 222° Southwest  Level Estimated
Tue 06:55:00 PM 25.6741 115.5464 222° Southwest  Level Estimated
Tue 06:56:00 PM 25.6022 115.4737 222° Southwest  Level Estimated
Tue 06:57:00 PM 25.5302 115.4011 222° Southwest  Level Estimated
Tue 06:58:00 PM 25.4582 115.3287 222° Southwest  Level Estimated
Tue 06:59:00 PM 25.3862 115.2563 222° Southwest  Level Estimated
Tue 07:00:00 PM 25.3141 115.1840 222° Southwest  Level Estimated
Tue 07:01:00 PM 25.2420 115.1117 222° Southwest  Level Estimated
Tue 07:02:00 PM 25.1698 115.0396 222° Southwest  Level Estimated
Tue 07:03:00 PM 25.0977 114.9675 222° Southwest  Level Estimated
Tue 07:04:00 PM 25.0254 114.8956 222° Southwest  Level Estimated
Tue 07:05:00 PM 24.9532 114.8237 222° Southwest  Level Estimated
Tue 07:06:00 PM 24.8809 114.7519 222° Southwest  Level Estimated
Tue 07:07:00 PM 24.8086 114.6802 222° Southwest  Level Estimated
Tue 07:08:00 PM 24.7362 114.6086 222° Southwest  Level Estimated
Tue 07:09:00 PM 24.6681 114.5412 222° Southwest  Level Estimated
Tue 07:10:00 PM 24.5999 114.4740 222° Southwest  Level Estimated
Tue 07:11:00 PM 24.5318 114.4068 222° Southwest  Level Estimated
Tue 07:12:00 PM 24.4635 114.3396 222° Southwest  Level Estimated
Tue 07:13:00 PM 24.3953 114.2726 222° Southwest  Level Estimated
Tue 07:14:00 PM 24.3270 114.2056 222° Southwest  Level Estimated
Tue 07:15:00 PM 24.2587 114.1387 222° Southwest  Level Estimated
Tue 07:16:00 PM 24.1904 114.0719 222° Southwest  Level Estimated
Tue 07:17:00 PM 24.1220 114.0051 222° Southwest  Level Estimated
Tue 07:18:00 PM 24.0536 113.9384 222° Southwest  Level Estimated
Tue 07:19:00 PM 23.9852 113.8718 222° Southwest  Level Estimated
Tue 07:20:00 PM 23.9167 113.8053 222° Southwest  Level Estimated
Tue 07:21:00 PM 23.8483 113.7388 222° Southwest  Level Estimated
Tue 07:22:00 PM 23.7798 113.6724 222° Southwest  Level Estimated
Tue 07:23:00 PM 23.7112 113.6060 222° Southwest  Level Estimated
Tue 07:24:00 PM 23.6427 113.5398 222° Southwest  Level Estimated
Tue 07:25:00 PM 23.5741 113.4736 221° Southwest  Level Estimated
Tue 07:26:00 PM 23.5054 113.4075 221° Southwest  Level Estimated
Tue 07:27:00 PM 23.4368 113.3414 221° Southwest  Level Estimated
Tue 07:28:00 PM 23.3924 113.2988 221° Southwest  Level Estimated
Tue 07:29:00 PM 23.3924 113.2988 North  Level Estimated
Tue 07:30:00 PM 23.3924 113.2988 North  Level Estimated
Tue 07:31:00 PM 23.3924 113.2988 North  Level Estimated
Tue 07:32:00 PM 23.3924 113.2988 North  Level Estimated
Tue 07:33:00 PM 23.3924 113.2988 North  Level Estimated
Tue 07:34:00 PM 23.3924 113.2988 North  Level Estimated
Tue 07:35:00 PM 23.3924 113.2988 North  Level Estimated
Tue 07:36:00 PM 23.3924 113.2988 North  Level Estimated
Tue 07:37:00 PM 23.3924 113.2988 North  Level Estimated
Tue 07:38:00 PM 23.3924 113.2988 North  Level Estimated

Login

Don't have an account? Register now (free) for customized features, flight alerts, and more!